createdAt,value
2022-12-13T00:01:57.703Z,94.84
2022-12-13T00:04:59.396Z,94.93
2022-12-13T00:08:01.873Z,94.72
2022-12-13T00:11:06.512Z,94.96
2022-12-13T00:14:08.131Z,93.61
2022-12-13T00:17:09.760Z,93.10
2022-12-13T00:20:12.646Z,93.62
2022-12-13T00:23:14.281Z,93.37
2022-12-13T00:26:19.089Z,93.32
2022-12-13T00:29:20.806Z,93.77
2022-12-13T00:32:22.437Z,94.23
2022-12-13T00:35:24.672Z,95.05
2022-12-13T00:38:26.224Z,94.23
2022-12-13T00:41:33.525Z,94.56
2022-12-13T00:44:35.167Z,94.67
2022-12-13T00:47:36.865Z,94.33
2022-12-13T00:50:38.802Z,94.81
2022-12-13T00:53:40.420Z,94.56
2022-12-13T00:56:42.332Z,94.69
2022-12-13T00:59:43.911Z,93.97
2022-12-13T01:02:45.829Z,94.14
2022-12-13T01:06:14.325Z,94.57
2022-12-13T01:09:19.945Z,94.37
2022-12-13T01:12:21.756Z,94.10
2022-12-13T01:15:23.215Z,93.70
2022-12-13T01:18:24.778Z,94.93
2022-12-13T01:21:26.496Z,93.10
2022-12-13T01:24:29.526Z,93.25
2022-12-13T01:27:31.139Z,93.14
2022-12-13T01:30:32.810Z,93.34
2022-12-13T01:33:34.651Z,93.74
2022-12-13T01:36:38.209Z,93.05
2022-12-13T01:39:39.907Z,91.48
2022-12-13T01:42:41.583Z,92.51
2022-12-13T01:45:44.058Z,92.55
2022-12-13T01:49:24.221Z,93.59
2022-12-13T01:52:26.127Z,93.26
2022-12-13T01:55:31.878Z,93.28
2022-12-13T01:58:36.688Z,92.52
2022-12-13T02:01:39.030Z,93.26
2022-12-13T02:04:50.821Z,92.15
2022-12-13T02:07:53.051Z,91.74
2022-12-13T02:10:54.997Z,93.42
2022-12-13T02:13:56.549Z,92.70
2022-12-13T02:17:11.735Z,93.34
2022-12-13T02:20:22.601Z,92.52
2022-12-13T02:23:45.864Z,92.58
2022-12-13T02:27:30.295Z,92.37
2022-12-13T02:30:43.150Z,92.74
2022-12-13T02:34:00.990Z,92.62
2022-12-13T02:37:37.736Z,92.67
2022-12-13T02:40:45.316Z,93.29
2022-12-13T02:43:53.962Z,92.72
2022-12-13T02:47:12.741Z,92.56
2022-12-13T02:50:26.160Z,92.35
2022-12-13T02:53:28.983Z,92.09
2022-12-13T02:56:32.101Z,92.33
2022-12-13T02:59:36.696Z,92.52
2022-12-13T03:03:12.124Z,92.56
2022-12-13T03:06:34.288Z,92.95
2022-12-13T03:10:18.750Z,92.40
2022-12-13T03:13:38.986Z,92.11
2022-12-13T03:16:44.017Z,91.66
2022-12-13T03:19:47.198Z,92.38
2022-12-13T03:22:48.793Z,92.01
2022-12-13T03:25:55.816Z,91.51
2022-12-13T03:28:57.412Z,91.25
2022-12-13T03:32:00.126Z,91.68
2022-12-13T03:35:01.744Z,92.16
2022-12-13T03:38:04.150Z,92.05
2022-12-13T03:41:09.872Z,90.97
2022-12-13T03:44:11.432Z,91.80
2022-12-13T03:47:12.892Z,91.74
2022-12-13T03:50:27.200Z,92.44
2022-12-13T03:53:33.147Z,93.13
2022-12-13T03:56:35.456Z,91.98
2022-12-13T03:59:39.047Z,91.84
2022-12-13T04:02:40.725Z,92.46
2022-12-13T04:05:42.789Z,92.54
2022-12-13T04:08:44.438Z,92.41
2022-12-13T04:12:04.312Z,91.84
2022-12-13T04:15:06.607Z,93.05
2022-12-13T04:18:08.260Z,92.06
2022-12-13T04:21:10.632Z,92.39
2022-12-13T04:24:12.211Z,93.48
2022-12-13T04:27:13.793Z,92.97
2022-12-13T04:30:15.384Z,92.29
2022-12-13T04:33:16.976Z,93.07
2022-12-13T04:36:31.872Z,93.23
2022-12-13T04:39:34.684Z,92.74
2022-12-13T04:42:36.544Z,92.92
2022-12-13T04:45:38.325Z,92.74
2022-12-13T04:48:39.956Z,92.45
2022-12-13T04:51:41.601Z,91.83
2022-12-13T04:54:56.147Z,91.75
2022-12-13T04:57:58.081Z,92.49
2022-12-13T05:00:59.782Z,93.51
2022-12-13T05:04:04.225Z,93.06
2022-12-13T05:07:05.860Z,92.62
2022-12-13T05:10:08.281Z,93.27
2022-12-13T05:13:09.855Z,93.60
2022-12-13T05:16:11.840Z,93.28
2022-12-13T05:19:13.937Z,93.25
2022-12-13T05:22:19.738Z,94.13
2022-12-13T05:25:22.034Z,94.12
2022-12-13T05:28:28.180Z,93.97
2022-12-13T05:31:30.459Z,94.18
2022-12-13T05:34:31.970Z,93.17
2022-12-13T05:37:34.875Z,93.63
2022-12-13T05:40:36.670Z,92.77
2022-12-13T05:43:43.097Z,92.65
2022-12-13T05:46:45.408Z,91.92
2022-12-13T05:49:46.935Z,92.05
2022-12-13T05:52:48.476Z,91.44
2022-12-13T05:55:50.137Z,91.15
2022-12-13T05:58:53.369Z,90.57
2022-12-13T06:01:57.010Z,90.26
2022-12-13T06:04:58.683Z,91.30
2022-12-13T06:08:00.509Z,91.39
2022-12-13T06:11:11.489Z,90.97
2022-12-13T06:14:21.727Z,90.87
2022-12-13T06:17:25.208Z,91.26
2022-12-13T06:20:27.023Z,91.24
2022-12-13T06:23:31.185Z,91.28
2022-12-13T06:26:32.748Z,91.21
2022-12-13T06:29:34.303Z,90.74
2022-12-13T06:32:38.911Z,91.21
2022-12-13T06:35:42.805Z,92.20
2022-12-13T06:38:44.339Z,93.46
2022-12-13T06:41:45.854Z,94.43
2022-12-13T06:44:47.464Z,94.39
2022-12-13T06:47:49.061Z,96.47
2022-12-13T06:50:50.580Z,96.84
2022-12-13T06:53:52.120Z,96.53
2022-12-13T06:56:53.663Z,97.04
2022-12-13T06:59:55.289Z,97.08
2022-12-13T07:02:56.974Z,98.07
2022-12-13T07:05:59.959Z,98.39
2022-12-13T07:09:03.708Z,97.14
2022-12-13T07:12:05.542Z,99.58
2022-12-13T07:15:07.803Z,99.78
2022-12-13T07:18:09.368Z,98.96
2022-12-13T07:21:21.353Z,99.58
2022-12-13T07:24:23.538Z,99.75
2022-12-13T07:27:25.116Z,98.93
2022-12-13T07:30:26.739Z,98.95
2022-12-13T07:33:32.331Z,98.20
2022-12-13T07:36:33.837Z,98.66
2022-12-13T07:39:35.343Z,99.00
2022-12-13T07:42:36.863Z,98.99
2022-12-13T07:45:39.490Z,99.26
2022-12-13T07:48:41.285Z,99.55
2022-12-13T07:51:42.798Z,98.79
2022-12-13T07:54:44.356Z,98.10
2022-12-13T07:57:45.914Z,98.88
2022-12-13T08:00:47.534Z,99.46
2022-12-13T08:03:50.468Z,99.63
2022-12-13T08:06:52.009Z,99.22
2022-12-13T08:09:55.220Z,98.29
2022-12-13T08:12:56.984Z,98.02
2022-12-13T08:16:04.039Z,96.67
2022-12-13T08:19:05.631Z,97.99
2022-12-13T08:22:14.411Z,97.34
2022-12-13T08:25:16.016Z,97.67
2022-12-13T08:28:18.488Z,96.85
2022-12-13T08:31:20.067Z,95.78
2022-12-13T08:34:21.637Z,95.24
2022-12-13T08:37:23.119Z,94.61
2022-12-13T08:40:24.674Z,96.62
2022-12-13T08:43:26.299Z,95.55
2022-12-13T08:46:27.999Z,94.83
2022-12-13T08:49:29.794Z,94.22
2022-12-13T08:52:39.301Z,93.73
2022-12-13T08:55:42.658Z,94.08
2022-12-13T08:58:44.982Z,93.71
2022-12-13T09:01:46.799Z,93.49
2022-12-13T09:04:49.198Z,93.09
2022-12-13T09:07:55.388Z,93.23
2022-12-13T09:11:01.355Z,92.94
2022-12-13T09:14:14.248Z,93.27
2022-12-13T09:17:16.635Z,92.27
2022-12-13T09:20:29.843Z,92.03
2022-12-13T09:23:31.647Z,91.74
2022-12-13T09:26:37.727Z,91.98
2022-12-13T09:29:40.386Z,91.04
2022-12-13T09:32:43.557Z,89.91
2022-12-13T09:35:45.400Z,89.46
2022-12-13T09:38:47.631Z,89.32
2022-12-13T09:42:00.745Z,88.87
2022-12-13T09:45:06.469Z,87.54
2022-12-13T09:48:24.792Z,87.41
2022-12-13T09:51:43.540Z,86.14
2022-12-13T09:54:49.005Z,84.75
2022-12-13T09:57:52.501Z,84.47
2022-12-13T10:00:56.684Z,83.83
2022-12-13T10:04:00.230Z,84.13
2022-12-13T10:07:03.623Z,83.67
2022-12-13T10:10:05.396Z,82.81
2022-12-13T10:13:24.288Z,82.32
2022-12-13T10:16:36.395Z,82.12
2022-12-13T10:19:44.152Z,81.54
2022-12-13T10:23:08.014Z,82.02
2022-12-13T10:26:14.776Z,82.52
2022-12-13T10:29:25.906Z,82.29
2022-12-13T10:32:28.268Z,82.95
2022-12-13T10:35:37.404Z,82.99
2022-12-13T10:38:41.641Z,83.19
2022-12-13T10:41:43.380Z,82.35
2022-12-13T10:44:45.756Z,82.13
2022-12-13T10:47:47.409Z,82.82
2022-12-13T10:51:02.578Z,83.12
2022-12-13T10:54:05.263Z,82.33
2022-12-13T10:57:11.455Z,83.32
2022-12-13T11:00:39.007Z,83.53
2022-12-13T11:03:40.862Z,83.05
2022-12-13T11:06:47.437Z,85.16
2022-12-13T11:09:52.532Z,84.94
2022-12-13T11:13:01.654Z,83.94
2022-12-13T11:16:05.319Z,83.96
2022-12-13T11:19:18.373Z,84.74
2022-12-13T11:22:32.247Z,85.46
2022-12-13T11:25:40.609Z,85.55
2022-12-13T11:28:55.635Z,84.33
2022-12-13T11:32:11.031Z,84.81
2022-12-13T11:35:24.922Z,84.41
2022-12-13T11:38:36.193Z,82.83
2022-12-13T11:42:09.699Z,83.88
2022-12-13T11:45:24.363Z,84.97
2022-12-13T11:48:51.007Z,84.56
2022-12-13T11:51:59.876Z,84.90
2022-12-13T11:55:17.525Z,84.75
2022-12-13T11:59:09.565Z,85.58
2022-12-13T12:02:29.493Z,84.54
2022-12-13T12:05:37.210Z,85.71
2022-12-13T12:08:47.151Z,84.58
2022-12-13T12:12:00.280Z,84.43
2022-12-13T12:15:15.618Z,84.98
2022-12-13T12:18:18.141Z,84.46
2022-12-13T12:21:56.518Z,85.36
2022-12-13T12:25:11.785Z,85.99
2022-12-13T12:28:50.974Z,86.74
2022-12-13T12:32:23.967Z,85.62
2022-12-13T12:35:33.107Z,86.26
2022-12-13T12:38:34.657Z,87.21
2022-12-13T12:42:19.692Z,86.94
2022-12-13T12:45:57.551Z,86.93
2022-12-13T12:49:37.650Z,88.42
2022-12-13T12:53:02.920Z,87.64
2022-12-13T12:56:25.155Z,86.83
2022-12-13T12:59:45.797Z,86.70
2022-12-13T13:02:53.130Z,86.11
2022-12-13T13:06:03.884Z,86.26
2022-12-13T13:09:09.128Z,85.32
2022-12-13T13:12:30.035Z,85.71
2022-12-13T13:15:32.509Z,84.92
2022-12-13T13:18:51.639Z,83.61
2022-12-13T13:22:02.103Z,83.78
2022-12-13T13:25:07.193Z,82.05
2022-12-13T13:28:18.857Z,82.20
2022-12-13T13:31:20.505Z,82.53
2022-12-13T13:34:25.587Z,80.29
2022-12-13T13:37:44.963Z,81.47
2022-12-13T13:40:46.535Z,81.65
2022-12-13T13:43:48.180Z,80.56
2022-12-13T13:47:14.401Z,79.88
2022-12-13T13:50:35.608Z,78.80
2022-12-13T13:53:56.544Z,78.17
2022-12-13T13:57:38.546Z,77.12
2022-12-13T14:00:50.344Z,77.43
2022-12-13T14:04:31.665Z,77.19
2022-12-13T14:07:36.290Z,77.96
2022-12-13T14:11:04.882Z,79.03
2022-12-13T14:14:38.561Z,79.31
2022-12-13T14:18:08.028Z,80.06
2022-12-13T14:21:41.665Z,80.71
2022-12-13T14:24:55.293Z,81.45
2022-12-13T14:28:22.145Z,82.42
2022-12-13T14:31:36.992Z,83.25
2022-12-13T14:34:39.446Z,83.15
2022-12-13T14:37:40.947Z,84.00
2022-12-13T14:40:52.104Z,84.13
2022-12-13T14:43:53.695Z,83.72
2022-12-13T14:46:59.006Z,83.89
2022-12-13T14:50:00.628Z,83.84
2022-12-13T14:53:05.370Z,84.49
2022-12-13T14:56:18.723Z,84.21
2022-12-13T14:59:31.310Z,84.68
2022-12-13T15:02:33.701Z,85.42
2022-12-13T15:05:48.797Z,85.38
2022-12-13T15:08:52.050Z,85.19
2022-12-13T15:11:54.074Z,84.55
2022-12-13T15:15:00.037Z,84.79
2022-12-13T15:18:11.106Z,85.58
2022-12-13T15:21:29.983Z,85.24
2022-12-13T15:24:40.951Z,85.48
2022-12-13T15:27:51.154Z,85.61
2022-12-13T15:30:52.844Z,85.26
2022-12-13T15:34:00.967Z,85.99
2022-12-13T15:37:29.708Z,85.64
2022-12-13T15:40:31.973Z,85.80
2022-12-13T15:43:43.533Z,85.94
2022-12-13T15:46:48.047Z,87.12
2022-12-13T15:49:59.950Z,87.15
2022-12-13T15:53:06.433Z,87.44
2022-12-13T15:57:01.680Z,86.88
2022-12-13T16:00:07.265Z,86.53
2022-12-13T16:03:21.546Z,87.44
2022-12-13T16:06:26.458Z,87.58
2022-12-13T16:09:33.459Z,88.21
2022-12-13T16:12:47.798Z,88.38
2022-12-13T16:15:53.180Z,88.38
2022-12-13T16:19:17.901Z,88.48
2022-12-13T16:22:21.833Z,88.53
2022-12-13T16:25:23.515Z,87.92
2022-12-13T16:28:26.091Z,87.93
2022-12-13T16:31:48.945Z,87.76
2022-12-13T16:34:52.091Z,88.21
2022-12-13T16:37:53.698Z,88.18
2022-12-13T16:41:08.832Z,88.38
2022-12-13T16:44:21.915Z,88.38
2022-12-13T16:47:36.428Z,89.59
2022-12-13T16:55:23.791Z,89.71
2022-12-13T16:58:25.932Z,91.27
2022-12-13T17:01:27.576Z,90.89
2022-12-13T17:04:29.126Z,90.71
2022-12-13T17:07:30.840Z,90.11
2022-12-13T17:10:32.422Z,90.47
2022-12-13T17:13:34.739Z,90.29
2022-12-13T17:16:36.400Z,91.02
2022-12-13T17:19:38.076Z,90.90
2022-12-13T17:22:39.570Z,90.82
2022-12-13T17:25:41.320Z,90.93
2022-12-13T17:28:42.917Z,90.71
2022-12-13T17:31:44.789Z,90.62
2022-12-13T17:34:46.294Z,91.05
2022-12-13T17:37:47.971Z,90.93
2022-12-13T17:40:54.868Z,91.69
2022-12-13T17:44:03.230Z,91.27
2022-12-13T17:47:04.931Z,90.80
2022-12-13T17:50:06.722Z,91.76
2022-12-13T17:53:08.245Z,91.54
2022-12-13T17:56:12.567Z,92.07
2022-12-13T17:59:15.350Z,91.69
2022-12-13T18:02:22.644Z,91.58
2022-12-13T18:05:27.541Z,91.39
2022-12-13T18:08:29.074Z,91.30
2022-12-13T18:11:33.665Z,91.58
2022-12-13T18:14:36.648Z,90.92
2022-12-13T18:18:09.465Z,91.96
2022-12-13T18:21:07.408Z,91.90
2022-12-13T18:24:09.686Z,91.88
2022-12-13T18:27:17.817Z,91.40
2022-12-13T18:30:19.558Z,90.98
2022-12-13T18:33:31.104Z,91.34
2022-12-13T18:36:33.262Z,90.60
2022-12-13T18:39:35.011Z,90.37
2022-12-13T18:42:36.679Z,90.25
2022-12-13T18:45:38.210Z,90.23
2022-12-13T18:48:39.984Z,89.37
2022-12-13T18:51:45.986Z,89.00
2022-12-13T18:54:54.579Z,89.56
2022-12-13T18:57:56.673Z,89.53
2022-12-13T19:00:58.581Z,89.31
2022-12-13T19:04:00.360Z,89.89
2022-12-13T19:07:01.988Z,89.15
2022-12-13T19:10:05.224Z,89.43
2022-12-13T19:13:06.709Z,88.53
2022-12-13T19:16:10.989Z,88.35
2022-12-13T19:19:13.178Z,88.96
2022-12-13T19:22:15.765Z,89.16
2022-12-13T19:25:17.343Z,88.91
2022-12-13T19:28:18.971Z,89.36
2022-12-13T19:31:23.160Z,90.13
2022-12-13T19:34:28.588Z,89.05
2022-12-13T19:37:30.159Z,89.42
2022-12-13T19:40:31.758Z,89.21
2022-12-13T19:43:36.878Z,88.73
2022-12-13T19:46:38.515Z,88.68
2022-12-13T19:49:40.078Z,88.59
2022-12-13T19:52:41.988Z,88.85
2022-12-13T19:55:48.329Z,89.33
2022-12-13T19:58:51.115Z,89.26
2022-12-13T20:01:52.764Z,88.99
2022-12-13T20:04:54.428Z,89.21
2022-12-13T20:07:58.045Z,89.45
2022-12-13T20:11:09.111Z,90.18
2022-12-13T20:14:10.614Z,90.36
2022-12-13T20:17:12.089Z,90.88
2022-12-13T20:20:13.792Z,91.83
2022-12-13T20:23:15.924Z,91.67
2022-12-13T20:26:23.170Z,90.91
2022-12-13T20:29:24.945Z,91.04
2022-12-13T20:32:26.806Z,91.51
2022-12-13T20:35:28.510Z,91.17
2022-12-13T20:38:30.445Z,91.31
2022-12-13T20:41:34.458Z,91.22
2022-12-13T20:44:36.568Z,90.53
2022-12-13T20:47:38.285Z,90.55
2022-12-13T20:50:40.005Z,90.77
2022-12-13T20:53:46.878Z,91.15
2022-12-13T20:56:48.503Z,90.58
2022-12-13T20:59:50.086Z,91.08
2022-12-13T21:02:51.699Z,91.35
2022-12-13T21:06:00.281Z,91.40
2022-12-13T21:09:03.755Z,90.67
2022-12-13T21:12:05.456Z,91.77
2022-12-13T21:15:11.017Z,91.21
2022-12-13T21:18:17.931Z,90.97
2022-12-13T21:21:19.948Z,91.86
2022-12-13T21:24:23.728Z,91.07
2022-12-13T21:27:25.370Z,91.81
2022-12-13T21:30:26.888Z,92.16
2022-12-13T21:33:29.347Z,92.34
2022-12-13T21:36:34.498Z,93.17
2022-12-13T21:39:35.999Z,93.42
2022-12-13T21:42:38.570Z,93.37
2022-12-13T21:45:42.892Z,92.94
2022-12-13T21:48:45.941Z,93.65
2022-12-13T21:51:48.397Z,94.48
2022-12-13T21:54:52.917Z,95.39
2022-12-13T21:58:20.486Z,97.26
2022-12-13T22:01:24.718Z,97.63
2022-12-13T22:04:26.292Z,97.25
2022-12-13T22:07:30.008Z,97.25
2022-12-13T22:10:31.723Z,97.56
2022-12-13T22:13:33.381Z,98.08
2022-12-13T22:16:35.091Z,97.58
2022-12-13T22:19:36.611Z,97.21
2022-12-13T22:22:39.819Z,97.22
2022-12-13T22:25:41.306Z,97.30
2022-12-13T22:28:42.833Z,96.71
2022-12-13T22:31:44.516Z,96.83
2022-12-13T22:34:50.634Z,97.23
2022-12-13T22:37:52.840Z,96.95
2022-12-13T22:40:54.310Z,98.43
2022-12-13T22:43:56.281Z,98.96
2022-12-13T22:46:57.807Z,99.34
2022-12-13T22:49:59.388Z,100.00
2022-12-13T22:53:01.702Z,100.00
2022-12-13T22:56:11.478Z,99.47
2022-12-13T22:59:13.017Z,99.44
2022-12-13T23:02:14.752Z,98.81
2022-12-13T23:05:16.640Z,98.50
2022-12-13T23:08:18.081Z,98.93
2022-12-13T23:11:39.031Z,99.48
2022-12-13T23:14:40.507Z,100.00
2022-12-13T23:17:41.999Z,100.00
2022-12-13T23:20:45.391Z,100.00
2022-12-13T23:23:50.144Z,100.00
2022-12-13T23:26:51.728Z,100.00
2022-12-13T23:29:53.213Z,100.00
2022-12-13T23:32:55.656Z,100.00
2022-12-13T23:36:06.304Z,100.00
2022-12-13T23:39:11.493Z,100.00
2022-12-13T23:42:13.363Z,100.00
2022-12-13T23:45:15.212Z,100.00
2022-12-13T23:48:16.705Z,100.00
2022-12-13T23:51:18.951Z,100.00
2022-12-13T23:54:20.508Z,100.00
2022-12-13T23:57:22.019Z,100.00
